createdAt,value
2022-08-24T00:00:48.672Z,74.53
2022-08-24T00:01:48.701Z,74.43
2022-08-24T00:02:48.796Z,74.22
2022-08-24T00:03:48.627Z,74.33
2022-08-24T00:04:49.587Z,74.22
2022-08-24T00:05:48.602Z,74.03
2022-08-24T00:06:48.590Z,73.89
2022-08-24T00:07:48.598Z,73.93
2022-08-24T00:08:48.551Z,73.93
2022-08-24T00:09:50.659Z,73.83
2022-08-24T00:10:48.517Z,73.79
2022-08-24T00:11:48.515Z,73.72
2022-08-24T00:12:48.501Z,73.79
2022-08-24T00:13:48.499Z,73.79
2022-08-24T00:14:49.461Z,73.89
2022-08-24T00:15:48.468Z,73.72
2022-08-24T00:16:48.576Z,73.93
2022-08-24T00:17:48.426Z,73.93
2022-08-24T00:18:48.421Z,74.22
2022-08-24T00:19:48.431Z,74.43
2022-08-24T00:20:48.412Z,74.43
2022-08-24T00:21:48.450Z,74.63
2022-08-24T00:22:48.384Z,74.73
2022-08-24T00:23:48.346Z,74.73
2022-08-24T00:24:48.331Z,74.53
2022-08-24T00:25:48.362Z,74.73
2022-08-24T00:26:48.320Z,74.73
2022-08-24T00:27:48.312Z,74.93
2022-08-24T00:28:48.301Z,74.43
2022-08-24T00:29:48.280Z,74.13
2022-08-24T00:30:48.286Z,74.63
2022-08-24T00:31:48.302Z,74.37
2022-08-24T00:32:48.235Z,74.37
2022-08-24T00:33:48.244Z,74.56
2022-08-24T00:34:54.078Z,74.96
2022-08-24T00:35:49.217Z,75.16
2022-08-24T00:36:48.180Z,75.06
2022-08-24T00:37:48.189Z,75.06
2022-08-24T00:38:48.169Z,75.26
2022-08-24T00:39:48.180Z,75.37
2022-08-24T00:40:48.159Z,75.46
2022-08-24T00:41:48.139Z,75.67
2022-08-24T00:42:48.106Z,75.67
2022-08-24T00:43:48.087Z,75.46
2022-08-24T00:44:48.089Z,75.37
2022-08-24T00:45:48.128Z,75.26
2022-08-24T00:46:48.122Z,75.56
2022-08-24T00:47:48.095Z,75.56
2022-08-24T00:48:48.038Z,75.67
2022-08-24T00:49:48.005Z,75.76
2022-08-24T00:50:48.006Z,75.67
2022-08-24T00:51:48.013Z,75.76
2022-08-24T00:52:48.009Z,75.76
2022-08-24T00:53:47.948Z,75.76
2022-08-24T00:54:47.987Z,75.76
2022-08-24T00:55:47.945Z,75.67
2022-08-24T00:56:47.949Z,75.76
2022-08-24T00:57:47.950Z,75.67
2022-08-24T00:58:47.908Z,75.46
2022-08-24T00:59:48.897Z,75.56
2022-08-24T01:00:48.455Z,75.37
2022-08-24T01:01:47.932Z,75.50
2022-08-24T01:02:47.975Z,75.70
2022-08-24T01:03:47.856Z,75.60
2022-08-24T01:04:47.813Z,75.70
2022-08-24T01:05:47.796Z,75.80
2022-08-24T01:06:47.817Z,75.70
2022-08-24T01:07:47.786Z,75.90
2022-08-24T01:08:47.777Z,76.00
2022-08-24T01:09:48.757Z,76.10
2022-08-24T01:10:47.748Z,76.20
2022-08-24T01:11:47.746Z,76.40
2022-08-24T01:12:52.210Z,76.50
2022-08-24T01:13:48.719Z,76.40
2022-08-24T01:14:47.729Z,76.60
2022-08-24T01:15:47.693Z,76.80
2022-08-24T01:16:47.678Z,76.90
2022-08-24T01:17:47.663Z,76.90
2022-08-24T01:18:47.646Z,77.00
2022-08-24T01:19:47.613Z,77.10
2022-08-24T01:20:47.620Z,77.20
2022-08-24T01:21:47.607Z,77.20
2022-08-24T01:22:47.587Z,77.30
2022-08-24T01:23:47.563Z,77.20
2022-08-24T01:24:47.589Z,77.30
2022-08-24T01:25:47.568Z,77.30
2022-08-24T01:26:47.547Z,77.40
2022-08-24T01:27:47.519Z,77.40
2022-08-24T01:28:47.496Z,77.40
2022-08-24T01:29:47.485Z,77.30
2022-08-24T01:30:47.488Z,77.50
2022-08-24T01:31:47.495Z,77.40
2022-08-24T01:32:47.463Z,77.50
2022-08-24T01:33:47.435Z,77.54
2022-08-24T01:34:47.424Z,77.64
2022-08-24T01:35:47.405Z,77.74
2022-08-24T01:36:47.404Z,77.84
2022-08-24T01:37:47.427Z,77.84
2022-08-24T01:38:47.375Z,77.94
2022-08-24T01:39:47.393Z,78.24
2022-08-24T01:40:47.359Z,78.24
2022-08-24T01:41:47.340Z,78.34
2022-08-24T01:42:47.355Z,78.44
2022-08-24T01:43:47.321Z,78.44
2022-08-24T01:44:47.308Z,78.54
2022-08-24T01:45:47.291Z,78.64
2022-08-24T01:46:47.324Z,78.74
2022-08-24T01:47:47.265Z,78.74
2022-08-24T01:48:47.268Z,78.84
2022-08-24T01:49:47.237Z,78.84
2022-08-24T01:50:47.244Z,78.94
2022-08-24T01:51:47.209Z,78.94
2022-08-24T01:53:04.398Z,79.14
2022-08-24T01:53:48.186Z,79.14
2022-08-24T01:54:47.165Z,79.28
2022-08-24T01:55:47.154Z,79.28
2022-08-24T01:56:47.159Z,79.28
2022-08-24T01:57:47.148Z,79.28
2022-08-24T01:58:47.112Z,79.38
2022-08-24T01:59:47.094Z,79.58
2022-08-24T02:00:47.107Z,79.68
2022-08-24T02:01:47.141Z,79.68
2022-08-24T02:03:55.505Z,79.88
2022-08-24T02:04:55.461Z,79.88
2022-08-24T02:05:58.177Z,79.78
2022-08-24T02:06:55.431Z,79.78
2022-08-24T02:07:55.465Z,79.68
2022-08-24T02:08:55.422Z,79.78
2022-08-24T02:09:55.418Z,79.78
2022-08-24T02:10:56.664Z,79.88
2022-08-24T02:11:55.362Z,79.98
2022-08-24T02:12:55.370Z,80.08
2022-08-24T02:13:55.346Z,80.28
2022-08-24T02:14:55.322Z,80.28
2022-08-24T02:15:55.436Z,80.38
2022-08-24T02:16:55.302Z,80.38
2022-08-24T02:17:55.329Z,80.48
2022-08-24T02:18:55.297Z,80.48
2022-08-24T02:19:55.272Z,80.48
2022-08-24T02:20:55.252Z,80.48
2022-08-24T02:21:55.254Z,80.58
2022-08-24T02:22:55.264Z,80.58
2022-08-24T02:23:55.233Z,80.68
2022-08-24T02:24:55.202Z,80.58
2022-08-24T02:25:55.188Z,80.58
2022-08-24T02:26:55.184Z,80.72
2022-08-24T02:27:55.197Z,80.79
2022-08-24T02:28:55.167Z,80.82
2022-08-24T02:29:55.145Z,80.72
2022-08-24T02:30:55.193Z,80.82
2022-08-24T02:31:55.125Z,80.82
2022-08-24T02:32:55.132Z,80.82
2022-08-24T02:33:55.102Z,80.82
2022-08-24T02:34:55.122Z,80.82
2022-08-24T02:35:55.060Z,80.92
2022-08-24T02:36:55.059Z,81.02
2022-08-24T02:37:55.040Z,81.12
2022-08-24T02:38:55.030Z,81.12
2022-08-24T02:39:55.100Z,81.12
2022-08-24T02:40:54.994Z,81.12
2022-08-24T02:41:55.017Z,81.12
2022-08-24T02:42:54.980Z,81.23
2022-08-24T02:43:54.940Z,81.32
2022-08-24T02:44:54.929Z,81.32
2022-08-24T02:45:54.946Z,81.42
2022-08-24T02:46:54.901Z,81.36
2022-08-24T02:47:54.907Z,81.36
2022-08-24T02:49:03.176Z,81.36
2022-08-24T02:49:55.871Z,81.46
2022-08-24T02:50:54.863Z,81.56
2022-08-24T02:51:54.849Z,81.56
2022-08-24T02:52:54.848Z,81.56
2022-08-24T02:53:54.823Z,81.56
2022-08-24T02:54:54.798Z,81.56
2022-08-24T02:55:54.803Z,81.67
2022-08-24T02:56:54.770Z,81.67
2022-08-24T02:57:54.788Z,81.76
2022-08-24T02:58:54.751Z,81.87
2022-08-24T02:59:54.732Z,81.87
2022-08-24T03:00:54.732Z,81.87
2022-08-24T03:01:54.796Z,81.96
2022-08-24T03:02:54.789Z,81.87
2022-08-24T03:03:54.693Z,81.96
2022-08-24T03:04:54.683Z,82.06
2022-08-24T03:05:54.650Z,81.96
2022-08-24T03:06:54.664Z,82.06
2022-08-24T03:07:54.663Z,81.96
2022-08-24T03:08:56.564Z,82.06
2022-08-24T03:09:54.600Z,82.06
2022-08-24T03:10:54.612Z,82.17
2022-08-24T03:11:54.593Z,82.26
2022-08-24T03:12:54.569Z,82.26
2022-08-24T03:13:54.581Z,82.26
2022-08-24T03:14:54.538Z,82.26
2022-08-24T03:15:54.554Z,82.26
2022-08-24T03:16:54.519Z,82.46
2022-08-24T03:17:54.511Z,82.57
2022-08-24T03:18:54.523Z,82.76
2022-08-24T03:19:54.479Z,82.87
2022-08-24T03:20:54.460Z,82.90
2022-08-24T03:21:54.455Z,82.90
2022-08-24T03:22:54.446Z,82.97
2022-08-24T03:23:54.432Z,83.11
2022-08-24T03:24:54.423Z,83.21
2022-08-24T03:25:54.407Z,83.21
2022-08-24T03:26:54.393Z,83.31
2022-08-24T03:27:54.369Z,83.41
2022-08-24T03:28:54.392Z,83.31
2022-08-24T03:29:54.338Z,83.41
2022-08-24T03:30:54.438Z,83.51
2022-08-24T03:31:54.310Z,83.71
2022-08-24T03:32:54.334Z,83.81
2022-08-24T03:33:54.325Z,83.91
2022-08-24T03:34:54.292Z,84.11
2022-08-24T03:35:54.293Z,84.21
2022-08-24T03:36:54.265Z,84.21
2022-08-24T03:37:54.250Z,84.31
2022-08-24T03:38:54.240Z,84.31
2022-08-24T03:39:54.233Z,84.31
2022-08-24T03:40:54.219Z,84.41
2022-08-24T03:41:54.216Z,84.41
2022-08-24T03:42:54.193Z,84.51
2022-08-24T03:43:54.170Z,84.61
2022-08-24T03:44:54.149Z,84.71
2022-08-24T03:45:54.157Z,84.81
2022-08-24T03:46:54.120Z,84.81
2022-08-24T03:47:54.111Z,84.81
2022-08-24T03:48:54.375Z,84.91
2022-08-24T03:49:54.115Z,84.91
2022-08-24T03:50:54.068Z,85.02
2022-08-24T03:51:54.048Z,85.11
2022-08-24T03:52:54.076Z,85.31
2022-08-24T03:53:54.046Z,85.52
2022-08-24T03:54:54.032Z,85.52
2022-08-24T03:55:54.005Z,85.52
2022-08-24T03:56:54.011Z,85.61
2022-08-24T03:57:53.978Z,85.61
2022-08-24T03:58:53.995Z,85.72
2022-08-24T03:59:53.961Z,85.82
2022-08-24T04:00:53.956Z,85.92
2022-08-24T04:01:53.972Z,85.92
2022-08-24T04:02:53.950Z,85.82
2022-08-24T04:03:53.921Z,85.82
2022-08-24T04:04:53.902Z,85.86
2022-08-24T04:05:53.882Z,85.75
2022-08-24T04:06:53.864Z,85.75
2022-08-24T04:07:53.870Z,85.75
2022-08-24T04:08:53.851Z,85.75
2022-08-24T04:09:53.843Z,85.86
2022-08-24T04:10:53.816Z,85.86
2022-08-24T04:11:53.812Z,85.86
2022-08-24T04:12:54.848Z,85.86
2022-08-24T04:13:53.803Z,85.75
2022-08-24T04:14:53.779Z,85.96
2022-08-24T04:15:53.760Z,85.86
2022-08-24T04:16:57.587Z,85.86
2022-08-24T04:17:53.733Z,85.86
2022-08-24T04:18:53.728Z,85.75
2022-08-24T04:19:53.707Z,85.75
2022-08-24T04:20:53.701Z,85.75
2022-08-24T04:21:53.691Z,85.75
2022-08-24T04:22:53.743Z,85.75
2022-08-24T04:23:53.679Z,85.75
2022-08-24T04:24:53.639Z,85.75
2022-08-24T04:25:53.640Z,85.75
2022-08-24T04:26:53.611Z,85.86
2022-08-24T04:27:53.599Z,85.86
2022-08-24T04:28:53.620Z,85.86
2022-08-24T04:29:53.567Z,85.86
2022-08-24T04:30:53.600Z,85.86
2022-08-24T04:31:53.689Z,85.86
2022-08-24T04:32:53.563Z,85.86
2022-08-24T04:33:54.054Z,85.75
2022-08-24T04:34:53.520Z,85.75
2022-08-24T04:35:53.496Z,85.80
2022-08-24T04:36:53.492Z,85.80
2022-08-24T04:37:53.466Z,85.66
2022-08-24T04:38:53.508Z,85.70
2022-08-24T04:39:53.523Z,85.70
2022-08-24T04:40:53.452Z,85.60
2022-08-24T04:41:53.430Z,85.60
2022-08-24T04:42:53.420Z,85.50
2022-08-24T04:43:53.409Z,85.50
2022-08-24T04:44:53.409Z,85.60
2022-08-24T04:45:53.504Z,85.60
2022-08-24T04:46:53.378Z,85.70
2022-08-24T04:47:53.336Z,85.70
2022-08-24T04:48:53.370Z,85.60
2022-08-24T04:49:53.328Z,85.60
2022-08-24T04:50:53.304Z,85.50
2022-08-24T04:51:53.311Z,85.50
2022-08-24T04:52:53.285Z,85.50
2022-08-24T04:53:53.275Z,85.50
2022-08-24T04:54:53.269Z,85.50
2022-08-24T04:55:53.236Z,85.60
2022-08-24T04:56:53.235Z,85.70
2022-08-24T04:57:53.245Z,85.80
2022-08-24T04:58:53.231Z,85.90
2022-08-24T04:59:53.226Z,85.90
2022-08-24T05:00:53.286Z,85.80
2022-08-24T05:01:53.205Z,85.90
2022-08-24T05:02:53.160Z,85.90
2022-08-24T05:03:53.156Z,86.00
2022-08-24T05:04:53.138Z,86.00
2022-08-24T05:05:53.128Z,86.10
2022-08-24T05:06:53.441Z,86.10
2022-08-24T05:07:56.423Z,86.10
2022-08-24T05:08:53.085Z,86.30
2022-08-24T05:09:53.069Z,86.40
2022-08-24T05:10:53.045Z,86.40
2022-08-24T05:11:53.048Z,86.36
2022-08-24T05:12:53.025Z,86.46
2022-08-24T05:13:53.004Z,86.46
2022-08-24T05:14:53.011Z,86.56
2022-08-24T05:15:53.033Z,86.66
2022-08-24T05:16:53.918Z,86.76
2022-08-24T05:17:52.969Z,86.86
2022-08-24T05:18:52.945Z,86.96
2022-08-24T05:19:52.944Z,86.86
2022-08-24T05:20:52.928Z,86.96
2022-08-24T05:21:52.904Z,86.86
2022-08-24T05:22:55.611Z,86.86
2022-08-24T05:23:52.909Z,86.86
2022-08-24T05:24:52.885Z,86.96
2022-08-24T05:25:52.861Z,86.86
2022-08-24T05:26:52.893Z,86.76
2022-08-24T05:27:52.854Z,86.66
2022-08-24T05:28:52.828Z,86.66
2022-08-24T05:29:52.813Z,86.66
2022-08-24T05:30:52.793Z,86.66
2022-08-24T05:31:52.830Z,86.66
2022-08-24T05:32:52.774Z,86.52
2022-08-24T05:33:52.744Z,86.56
2022-08-24T05:34:52.778Z,86.42
2022-08-24T05:35:52.737Z,86.32
2022-08-24T05:36:52.714Z,86.22
2022-08-24T05:37:52.714Z,86.32
2022-08-24T05:38:52.708Z,86.22
2022-08-24T05:39:52.756Z,86.12
2022-08-24T05:40:52.678Z,86.02
2022-08-24T05:41:52.674Z,86.02
2022-08-24T05:42:52.647Z,85.88
2022-08-24T05:43:52.626Z,85.88
2022-08-24T05:44:52.623Z,85.88
2022-08-24T05:45:52.609Z,85.88
2022-08-24T05:46:52.741Z,85.78
2022-08-24T05:47:52.586Z,85.78
2022-08-24T05:48:53.361Z,85.78
2022-08-24T05:49:52.553Z,85.68
2022-08-24T05:50:52.542Z,85.68
2022-08-24T05:51:52.536Z,85.68
2022-08-24T05:52:52.517Z,85.58
2022-08-24T05:53:52.506Z,85.58
2022-08-24T05:54:52.505Z,85.58
2022-08-24T05:55:52.480Z,85.58
2022-08-24T05:56:52.484Z,85.47
2022-08-24T05:57:52.455Z,85.47
2022-08-24T05:58:52.445Z,85.47
2022-08-24T05:59:52.459Z,84.77
2022-08-24T06:00:52.415Z,84.37
2022-08-24T06:01:52.528Z,84.37
2022-08-24T06:02:52.456Z,84.37
2022-08-24T06:03:52.364Z,84.57
2022-08-24T06:04:52.376Z,84.53
2022-08-24T06:05:52.343Z,82.97
2022-08-24T06:06:52.347Z,83.03
2022-08-24T06:07:52.303Z,83.33
2022-08-24T06:08:52.305Z,83.23
2022-08-24T06:09:52.282Z,83.33
2022-08-24T06:10:52.316Z,82.53
2022-08-24T06:11:52.253Z,82.93
2022-08-24T06:12:52.250Z,82.63
2022-08-24T06:13:59.196Z,82.23
2022-08-24T06:14:53.213Z,79.72
2022-08-24T06:16:19.644Z,78.02
2022-08-24T06:16:53.265Z,77.67
2022-08-24T06:17:52.222Z,77.37
2022-08-24T06:18:52.190Z,76.87
2022-08-24T06:19:52.154Z,76.57
2022-08-24T06:20:52.153Z,76.37
2022-08-24T06:21:53.137Z,77.44
2022-08-24T06:22:52.131Z,76.24
2022-08-24T06:23:52.135Z,76.94
2022-08-24T06:24:52.113Z,77.24
2022-08-24T06:25:52.094Z,75.63
2022-08-24T06:26:52.074Z,74.33
2022-08-24T06:27:52.050Z,75.23
2022-08-24T06:28:52.054Z,73.63
2022-08-24T06:29:52.038Z,72.13
2022-08-24T06:30:52.023Z,70.43
2022-08-24T06:31:54.765Z,70.93
2022-08-24T06:32:52.006Z,71.73
2022-08-24T06:33:51.972Z,72.23
2022-08-24T06:34:51.962Z,72.09
2022-08-24T06:35:51.962Z,67.69
2022-08-24T06:36:51.946Z,68.09
2022-08-24T06:37:51.945Z,68.89
2022-08-24T06:38:51.914Z,69.59
2022-08-24T06:39:55.961Z,68.99
2022-08-24T06:40:52.905Z,69.26
2022-08-24T06:41:51.897Z,69.06
2022-08-24T06:42:51.875Z,67.25
2022-08-24T06:43:51.843Z,67.66
2022-08-24T06:44:51.855Z,67.96
2022-08-24T06:45:51.846Z,68.05
2022-08-24T06:46:51.858Z,70.06
2022-08-24T06:47:51.805Z,66.36
2022-08-24T06:48:51.805Z,66.32
2022-08-24T06:49:51.786Z,67.22
2022-08-24T06:50:51.791Z,66.22
2022-08-24T06:51:51.745Z,66.42
2022-08-24T06:52:51.746Z,65.62
2022-08-24T06:53:51.726Z,65.19
2022-08-24T06:54:51.727Z,63.79
2022-08-24T06:55:51.714Z,64.49
2022-08-24T06:56:51.695Z,64.39
2022-08-24T06:57:52.663Z,64.46
2022-08-24T06:58:51.679Z,64.66
2022-08-24T06:59:51.655Z,63.96
2022-08-24T07:00:51.658Z,64.36
2022-08-24T07:01:51.683Z,63.46
2022-08-24T07:02:51.683Z,63.36
2022-08-24T07:03:51.652Z,62.13
2022-08-24T07:04:51.613Z,62.43
2022-08-24T07:05:51.562Z,63.13
2022-08-24T07:06:51.565Z,60.93
2022-08-24T07:07:51.541Z,61.24
2022-08-24T07:08:51.540Z,61.51
2022-08-24T07:09:51.534Z,60.71
2022-08-24T07:10:51.522Z,60.61
2022-08-24T07:11:51.492Z,60.00
2022-08-24T07:12:51.481Z,59.78
2022-08-24T07:13:51.475Z,59.58
2022-08-24T07:14:51.517Z,59.98
2022-08-24T07:15:51.459Z,59.88
2022-08-24T07:16:51.517Z,59.88
2022-08-24T07:17:51.420Z,60.05
2022-08-24T07:18:51.409Z,59.85
2022-08-24T07:19:51.390Z,59.65
2022-08-24T07:20:51.381Z,60.45
2022-08-24T07:21:51.385Z,60.65
2022-08-24T07:22:51.351Z,61.05
2022-08-24T07:23:51.343Z,61.22
2022-08-24T07:24:51.324Z,61.22
2022-08-24T07:25:55.475Z,61.32
2022-08-24T07:26:51.314Z,61.32
2022-08-24T07:27:51.300Z,61.61
2022-08-24T07:28:51.322Z,61.41
2022-08-24T07:30:09.992Z,61.22
2022-08-24T07:30:52.333Z,60.82
2022-08-24T07:31:51.254Z,60.52
2022-08-24T07:32:51.212Z,60.22
2022-08-24T07:33:51.210Z,60.42
2022-08-24T07:34:51.210Z,60.89
2022-08-24T07:35:51.222Z,60.89
2022-08-24T07:36:51.171Z,60.79
2022-08-24T07:37:51.172Z,60.79
2022-08-24T07:38:51.154Z,59.89
2022-08-24T07:39:51.201Z,59.99
2022-08-24T07:41:14.352Z,60.39
2022-08-24T07:42:11.515Z,60.89
2022-08-24T07:42:52.090Z,60.49
2022-08-24T07:43:51.080Z,60.16
2022-08-24T07:44:51.080Z,60.56
2022-08-24T07:45:51.125Z,60.76
2022-08-24T07:46:51.259Z,59.66
2022-08-24T07:47:55.419Z,59.96
2022-08-24T07:49:00.103Z,59.36
2022-08-24T07:49:52.002Z,59.66
2022-08-24T07:50:51.023Z,59.83
2022-08-24T07:51:50.994Z,60.13
2022-08-24T07:52:50.957Z,59.34
2022-08-24T07:53:53.950Z,59.74
2022-08-24T07:54:50.951Z,59.14
2022-08-24T07:55:50.939Z,59.64
2022-08-24T07:56:50.933Z,59.14
2022-08-24T07:57:50.912Z,57.94
2022-08-24T07:58:50.894Z,58.84
2022-08-24T07:59:50.883Z,59.31
2022-08-24T08:00:50.867Z,59.61
2022-08-24T08:01:50.901Z,59.81
2022-08-24T08:02:50.859Z,59.70
2022-08-24T08:03:58.391Z,58.71
2022-08-24T08:04:50.816Z,59.41
2022-08-24T08:05:50.825Z,59.08
2022-08-24T08:06:50.827Z,59.18
2022-08-24T08:07:52.315Z,59.18
2022-08-24T08:08:50.760Z,59.08
2022-08-24T08:09:50.741Z,58.88
2022-08-24T08:10:50.741Z,58.58
2022-08-24T08:11:50.742Z,58.18
2022-08-24T08:12:50.708Z,57.69
2022-08-24T08:13:50.745Z,57.79
2022-08-24T08:14:50.680Z,58.18
2022-08-24T08:15:50.745Z,58.98
2022-08-24T08:16:50.639Z,59.08
2022-08-24T08:17:52.045Z,58.58
2022-08-24T08:18:56.394Z,59.08
2022-08-24T08:19:51.639Z,57.99
2022-08-24T08:20:50.597Z,58.58
2022-08-24T08:21:50.577Z,58.39
2022-08-24T08:22:50.568Z,58.69
2022-08-24T08:23:50.550Z,58.65
2022-08-24T08:24:50.558Z,58.06
2022-08-24T08:25:50.556Z,58.65
2022-08-24T08:26:50.557Z,58.16
2022-08-24T08:27:50.551Z,58.16
2022-08-24T08:28:50.491Z,58.26
2022-08-24T08:29:50.507Z,58.43
2022-08-24T08:30:50.504Z,58.03
2022-08-24T08:31:50.480Z,58.03
2022-08-24T08:32:50.447Z,57.93
2022-08-24T08:33:50.428Z,57.34
2022-08-24T08:34:50.397Z,57.93
2022-08-24T08:35:50.433Z,57.41
2022-08-24T08:36:50.403Z,57.51
2022-08-24T08:37:50.380Z,58.00
2022-08-24T08:38:50.348Z,57.21
2022-08-24T08:39:50.364Z,57.51
2022-08-24T08:40:50.348Z,57.81
2022-08-24T08:41:50.330Z,57.98
2022-08-24T08:42:50.322Z,57.68
2022-08-24T08:43:50.301Z,56.88
2022-08-24T08:44:50.284Z,57.58
2022-08-24T08:45:50.337Z,56.98
2022-08-24T08:46:50.293Z,56.68
2022-08-24T08:47:50.550Z,56.98
2022-08-24T08:48:50.240Z,57.15
2022-08-24T08:49:52.957Z,57.15
2022-08-24T08:50:50.208Z,57.45
2022-08-24T08:51:50.187Z,56.76
2022-08-24T08:52:50.181Z,56.85
2022-08-24T08:53:50.156Z,56.95
2022-08-24T08:54:50.175Z,56.85
2022-08-24T08:55:52.565Z,56.66
2022-08-24T08:56:50.131Z,56.46
2022-08-24T08:57:50.115Z,56.16
2022-08-24T08:58:57.547Z,56.46
2022-08-24T08:59:52.040Z,56.06
2022-08-24T09:00:50.065Z,56.26
2022-08-24T09:01:50.111Z,56.04
2022-08-24T09:02:50.037Z,55.64
2022-08-24T09:03:50.052Z,55.54
2022-08-24T09:04:50.079Z,56.63
2022-08-24T09:05:50.074Z,56.73
2022-08-24T09:06:49.987Z,54.35
2022-08-24T09:07:49.991Z,54.85
2022-08-24T09:08:52.116Z,56.13
2022-08-24T09:09:49.972Z,54.82
2022-08-24T09:10:49.968Z,54.62
2022-08-24T09:11:49.927Z,55.21
2022-08-24T09:12:49.930Z,54.62
2022-08-24T09:13:49.932Z,55.61
2022-08-24T09:14:49.927Z,54.92
2022-08-24T09:15:49.927Z,54.13
2022-08-24T09:16:50.918Z,54.02
2022-08-24T09:17:49.864Z,54.62
2022-08-24T09:18:49.867Z,55.29
2022-08-24T09:19:49.864Z,54.39
2022-08-24T09:20:49.810Z,55.09
2022-08-24T09:21:49.832Z,54.89
2022-08-24T09:22:49.793Z,54.89
2022-08-24T09:23:49.786Z,54.69
2022-08-24T09:24:49.765Z,54.20
2022-08-24T09:25:49.746Z,54.69
2022-08-24T09:26:49.754Z,53.60
2022-08-24T09:27:51.661Z,53.58
2022-08-24T09:28:49.796Z,53.67
2022-08-24T09:29:49.687Z,52.59
2022-08-24T09:30:49.734Z,52.49
2022-08-24T09:31:49.701Z,51.79
2022-08-24T09:32:49.850Z,51.79
2022-08-24T09:33:49.661Z,51.99
2022-08-24T09:34:49.625Z,52.19
2022-08-24T09:35:49.634Z,51.47
2022-08-24T09:36:49.627Z,51.57
2022-08-24T09:37:49.596Z,51.77
2022-08-24T09:38:49.574Z,51.25
2022-08-24T09:39:49.590Z,50.56
2022-08-24T09:40:49.560Z,51.45
2022-08-24T09:41:49.558Z,51.65
2022-08-24T09:42:50.524Z,52.04
2022-08-24T09:43:49.539Z,51.05
2022-08-24T09:44:49.517Z,51.25
2022-08-24T09:45:51.353Z,50.76
2022-08-24T09:46:49.478Z,50.16
2022-08-24T09:47:49.463Z,50.76
2022-08-24T09:48:49.460Z,51.15
2022-08-24T09:49:49.448Z,51.15
2022-08-24T09:50:49.434Z,50.36
2022-08-24T09:51:49.416Z,50.95
2022-08-24T09:52:49.440Z,50.36
2022-08-24T09:53:49.385Z,50.36
2022-08-24T09:54:49.379Z,50.85
2022-08-24T09:55:49.379Z,50.66
2022-08-24T09:56:51.458Z,50.95
2022-08-24T09:58:00.699Z,50.76
2022-08-24T09:58:50.338Z,50.46
2022-08-24T09:59:49.306Z,50.06
2022-08-24T10:00:49.332Z,49.44
2022-08-24T10:01:49.313Z,49.44
2022-08-24T10:02:49.277Z,49.64
2022-08-24T10:03:49.269Z,49.22
2022-08-24T10:04:49.341Z,49.02
2022-08-24T10:05:49.362Z,48.53
2022-08-24T10:06:49.239Z,48.73
2022-08-24T10:07:49.199Z,48.63
2022-08-24T10:08:49.198Z,48.24
2022-08-24T10:09:49.176Z,48.63
2022-08-24T10:10:49.185Z,48.43
2022-08-24T10:11:49.191Z,47.84
2022-08-24T10:12:52.878Z,48.03
2022-08-24T10:13:50.119Z,49.52
2022-08-24T10:14:49.108Z,49.49
2022-08-24T10:15:49.110Z,47.91
2022-08-24T10:16:49.158Z,48.63
2022-08-24T10:17:49.089Z,48.03
2022-08-24T10:18:49.069Z,47.54
2022-08-24T10:19:49.051Z,47.94
2022-08-24T10:20:51.036Z,48.83
2022-08-24T10:21:49.029Z,49.02
2022-08-24T10:22:49.015Z,47.42
2022-08-24T10:23:49.042Z,47.62
2022-08-24T10:24:48.985Z,47.22
2022-08-24T10:25:48.989Z,46.83
2022-08-24T10:26:48.955Z,47.62
2022-08-24T10:27:49.299Z,48.19
2022-08-24T10:28:48.958Z,47.30
2022-08-24T10:29:48.927Z,47.30
2022-08-24T10:30:48.897Z,46.91
2022-08-24T10:31:48.942Z,47.89
2022-08-24T10:32:48.901Z,48.39
2022-08-24T10:33:48.865Z,49.18
2022-08-24T10:34:48.857Z,48.28
2022-08-24T10:35:48.869Z,47.99
2022-08-24T10:36:48.849Z,47.10
2022-08-24T10:37:48.805Z,47.50
2022-08-24T10:38:48.819Z,47.99
2022-08-24T10:39:48.849Z,47.20
2022-08-24T10:40:48.779Z,46.51
2022-08-24T10:41:48.778Z,46.59
2022-08-24T10:42:48.823Z,46.19
2022-08-24T10:43:48.760Z,46.69
2022-08-24T10:44:48.767Z,46.69
2022-08-24T10:45:48.769Z,46.88
2022-08-24T10:46:48.707Z,46.19
2022-08-24T10:47:48.727Z,46.37
2022-08-24T10:48:48.716Z,45.48
2022-08-24T10:49:48.669Z,46.07
2022-08-24T10:50:48.638Z,46.26
2022-08-24T10:51:48.656Z,45.57
2022-08-24T10:52:48.618Z,46.26
2022-08-24T10:53:48.618Z,45.87
2022-08-24T10:54:48.601Z,45.78
2022-08-24T10:55:48.589Z,45.57
2022-08-24T10:56:48.563Z,45.97
2022-08-24T10:57:48.587Z,45.48
2022-08-24T10:58:48.532Z,45.87
2022-08-24T10:59:48.553Z,46.66
2022-08-24T11:00:48.538Z,45.87
2022-08-24T11:01:48.566Z,45.38
2022-08-24T11:02:48.509Z,45.28
2022-08-24T11:03:48.474Z,45.67
2022-08-24T11:04:48.460Z,45.85
2022-08-24T11:05:48.446Z,44.47
2022-08-24T11:06:48.445Z,44.89
2022-08-24T11:07:48.489Z,45.36
2022-08-24T11:08:48.406Z,47.23
2022-08-24T11:09:48.409Z,46.84
2022-08-24T11:10:48.388Z,46.04
2022-08-24T11:11:48.379Z,45.26
2022-08-24T11:12:48.374Z,46.15
2022-08-24T11:13:48.349Z,46.34
2022-08-24T11:14:48.340Z,45.85
2022-08-24T11:15:48.338Z,46.25
2022-08-24T11:16:48.352Z,45.63
2022-08-24T11:17:48.286Z,44.74
2022-08-24T11:18:48.298Z,45.83
2022-08-24T11:19:48.289Z,45.43
2022-08-24T11:20:48.262Z,45.34
2022-08-24T11:21:48.249Z,45.93
2022-08-24T11:22:48.232Z,44.35
2022-08-24T11:23:48.226Z,44.74
2022-08-24T11:24:48.229Z,44.06
2022-08-24T11:25:48.186Z,44.25
2022-08-24T11:26:51.118Z,45.63
2022-08-24T11:27:49.180Z,45.24
2022-08-24T11:28:48.205Z,44.94
2022-08-24T11:29:48.135Z,44.82
2022-08-24T11:30:48.116Z,43.84
2022-08-24T11:31:48.147Z,43.54
2022-08-24T11:32:48.092Z,43.37
2022-08-24T11:33:49.728Z,43.17
2022-08-24T11:34:48.072Z,44.06
2022-08-24T11:35:48.058Z,44.65
2022-08-24T11:36:48.043Z,45.14
2022-08-24T11:37:48.029Z,45.53
2022-08-24T11:38:48.043Z,44.35
2022-08-24T11:39:48.092Z,44.13
2022-08-24T11:40:47.996Z,44.55
2022-08-24T11:41:47.996Z,44.43
2022-08-24T11:42:47.965Z,45.41
2022-08-24T11:43:47.976Z,43.64
2022-08-24T11:44:47.945Z,42.76
2022-08-24T11:45:47.933Z,43.15
2022-08-24T11:46:48.031Z,43.64
2022-08-24T11:47:47.937Z,43.71
2022-08-24T11:48:47.906Z,44.51
2022-08-24T11:49:47.932Z,43.62
2022-08-24T11:50:47.877Z,42.73
2022-08-24T11:51:47.869Z,43.32
2022-08-24T11:52:47.900Z,43.71
2022-08-24T11:53:47.905Z,43.32
2022-08-24T11:54:47.824Z,43.71
2022-08-24T11:55:51.426Z,43.82
2022-08-24T11:56:47.809Z,44.80
2022-08-24T11:57:48.394Z,42.93
2022-08-24T11:58:47.800Z,43.13
2022-08-24T11:59:47.772Z,42.55
2022-08-24T12:00:47.737Z,43.64
2022-08-24T12:01:47.878Z,44.31
2022-08-24T12:02:47.947Z,43.32
2022-08-24T12:03:52.333Z,42.44
2022-08-24T12:04:48.685Z,42.44
2022-08-24T12:05:47.697Z,42.44
2022-08-24T12:06:47.656Z,42.24
2022-08-24T12:08:00.674Z,42.61
2022-08-24T12:08:48.655Z,42.12
2022-08-24T12:09:47.630Z,42.71
2022-08-24T12:10:47.615Z,42.04
2022-08-24T12:11:47.623Z,43.20
2022-08-24T12:12:47.616Z,41.63
2022-08-24T12:13:47.619Z,41.73
2022-08-24T12:14:47.578Z,41.33
2022-08-24T12:15:51.799Z,42.41
2022-08-24T12:16:47.595Z,42.22
2022-08-24T12:17:47.515Z,42.61
2022-08-24T12:18:47.515Z,42.41
2022-08-24T12:19:47.501Z,42.41
2022-08-24T12:20:48.126Z,42.02
2022-08-24T12:21:47.479Z,42.00
2022-08-24T12:22:47.463Z,42.00
2022-08-24T12:23:47.466Z,41.61
2022-08-24T12:24:47.428Z,42.30
2022-08-24T12:25:47.416Z,42.30
2022-08-24T12:26:47.422Z,41.11
2022-08-24T12:27:47.399Z,41.02
2022-08-24T12:28:51.154Z,41.11
2022-08-24T12:29:48.380Z,40.92
2022-08-24T12:30:47.359Z,41.04
2022-08-24T12:31:47.403Z,40.64
2022-08-24T12:32:47.336Z,40.74
2022-08-24T12:33:47.334Z,40.53
2022-08-24T12:34:49.711Z,40.62
2022-08-24T12:35:47.290Z,41.04
2022-08-24T12:36:47.274Z,40.33
2022-08-24T12:37:47.279Z,40.53
2022-08-24T12:38:47.299Z,40.92
2022-08-24T12:39:47.278Z,41.61
2022-08-24T12:40:47.214Z,41.11
2022-08-24T12:41:47.210Z,41.43
2022-08-24T12:42:51.783Z,40.92
2022-08-24T12:43:48.197Z,40.23
2022-08-24T12:44:47.200Z,40.11
2022-08-24T12:45:47.159Z,40.51
2022-08-24T12:46:47.181Z,39.72
2022-08-24T12:47:47.131Z,40.31
2022-08-24T12:48:47.159Z,40.43
2022-08-24T12:49:47.141Z,40.03
2022-08-24T12:50:47.103Z,40.53
2022-08-24T12:51:47.084Z,40.23
2022-08-24T12:52:47.099Z,40.13
2022-08-24T12:53:47.057Z,40.13